sensor_id;sensor_type;location;lat;lon;timestamp;P1;durP1;ratioP1;P2;durP2;ratioP2
10471;SDS011;5283;48.876;8.962;2023-03-01T00:01:03;22.27;;;14.37;;
10471;SDS011;5283;48.876;8.962;2023-03-01T00:03:33;21.70;;;13.23;;
10471;SDS011;5283;48.876;8.962;2023-03-01T00:06:01;20.17;;;13.57;;
10471;SDS011;5283;48.876;8.962;2023-03-01T00:08:28;19.43;;;12.83;;
10471;SDS011;5283;48.876;8.962;2023-03-01T00:11:15;19.43;;;13.57;;
10471;SDS011;5283;48.876;8.962;2023-03-01T00:13:44;19.80;;;12.87;;
10471;SDS011;5283;48.876;8.962;2023-03-01T00:16:14;22.40;;;14.30;;
10471;SDS011;5283;48.876;8.962;2023-03-01T00:18:43;20.10;;;13.33;;
10471;SDS011;5283;48.876;8.962;2023-03-01T00:21:10;22.10;;;13.80;;
10471;SDS011;5283;48.876;8.962;2023-03-01T00:23:37;20.83;;;14.37;;
10471;SDS011;5283;48.876;8.962;2023-03-01T00:26:08;23.83;;;15.73;;
10471;SDS011;5283;48.876;8.962;2023-03-01T00:28:37;21.87;;;13.80;;
10471;SDS011;5283;48.876;8.962;2023-03-01T00:31:07;22.60;;;14.33;;
10471;SDS011;5283;48.876;8.962;2023-03-01T00:33:35;20.90;;;15.00;;
10471;SDS011;5283;48.876;8.962;2023-03-01T00:36:02;22.80;;;14.57;;
10471;SDS011;5283;48.876;8.962;2023-03-01T00:38:29;22.80;;;14.57;;
10471;SDS011;5283;48.876;8.962;2023-03-01T00:41:02;22.80;;;14.33;;
10471;SDS011;5283;48.876;8.962;2023-03-01T00:43:30;23.00;;;14.47;;
10471;SDS011;5283;48.876;8.962;2023-03-01T00:46:10;23.80;;;14.57;;
10471;SDS011;5283;48.876;8.962;2023-03-01T00:48:41;23.60;;;14.23;;
10471;SDS011;5283;48.876;8.962;2023-03-01T00:51:12;24.87;;;15.60;;
10471;SDS011;5283;48.876;8.962;2023-03-01T00:53:41;23.43;;;15.33;;
10471;SDS011;5283;48.876;8.962;2023-03-01T00:56:09;24.17;;;14.43;;
10471;SDS011;5283;48.876;8.962;2023-03-01T00:58:37;22.07;;;14.63;;
10471;SDS011;5283;48.876;8.962;2023-03-01T01:01:08;21.73;;;14.53;;
10471;SDS011;5283;48.876;8.962;2023-03-01T01:03:44;24.87;;;14.93;;
10471;SDS011;5283;48.876;8.962;2023-03-01T01:06:17;24.43;;;15.97;;
10471;SDS011;5283;48.876;8.962;2023-03-01T01:08:46;24.50;;;15.23;;
10471;SDS011;5283;48.876;8.962;2023-03-01T01:11:13;23.90;;;15.03;;
10471;SDS011;5283;48.876;8.962;2023-03-01T01:13:40;22.93;;;14.57;;
10471;SDS011;5283;48.876;8.962;2023-03-01T01:16:07;20.17;;;13.83;;
10471;SDS011;5283;48.876;8.962;2023-03-01T01:18:35;21.20;;;13.60;;
10471;SDS011;5283;48.876;8.962;2023-03-01T01:21:06;21.57;;;15.37;;
10471;SDS011;5283;48.876;8.962;2023-03-01T01:23:35;22.40;;;14.20;;
10471;SDS011;5283;48.876;8.962;2023-03-01T01:26:04;24.93;;;15.37;;
10471;SDS011;5283;48.876;8.962;2023-03-01T01:28:36;23.70;;;14.87;;
10471;SDS011;5283;48.876;8.962;2023-03-01T01:31:03;24.07;;;15.60;;
10471;SDS011;5283;48.876;8.962;2023-03-01T01:33:30;24.33;;;15.13;;
10471;SDS011;5283;48.876;8.962;2023-03-01T01:35:58;23.67;;;15.37;;
10471;SDS011;5283;48.876;8.962;2023-03-01T01:38:25;25.90;;;14.90;;
10471;SDS011;5283;48.876;8.962;2023-03-01T01:40:51;25.33;;;15.37;;
10471;SDS011;5283;48.876;8.962;2023-03-01T01:43:23;25.53;;;15.97;;
10471;SDS011;5283;48.876;8.962;2023-03-01T01:45:55;21.87;;;14.30;;
10471;SDS011;5283;48.876;8.962;2023-03-01T01:48:29;23.60;;;14.57;;
10471;SDS011;5283;48.876;8.962;2023-03-01T01:51:07;26.83;;;15.70;;
10471;SDS011;5283;48.876;8.962;2023-03-01T01:53:37;23.73;;;14.63;;
10471;SDS011;5283;48.876;8.962;2023-03-01T01:56:06;26.27;;;15.53;;
10471;SDS011;5283;48.876;8.962;2023-03-01T01:58:36;25.47;;;15.27;;
10471;SDS011;5283;48.876;8.962;2023-03-01T02:01:04;23.70;;;14.77;;
10471;SDS011;5283;48.876;8.962;2023-03-01T02:03:32;24.13;;;15.33;;
10471;SDS011;5283;48.876;8.962;2023-03-01T02:06:04;23.30;;;14.83;;
10471;SDS011;5283;48.876;8.962;2023-03-01T02:08:37;24.93;;;15.17;;
10471;SDS011;5283;48.876;8.962;2023-03-01T02:11:07;26.83;;;16.03;;
10471;SDS011;5283;48.876;8.962;2023-03-01T02:13:36;25.40;;;17.23;;
10471;SDS011;5283;48.876;8.962;2023-03-01T02:16:04;25.03;;;15.73;;
10471;SDS011;5283;48.876;8.962;2023-03-01T02:18:34;26.73;;;17.00;;
10471;SDS011;5283;48.876;8.962;2023-03-01T02:21:06;25.00;;;16.03;;
10471;SDS011;5283;48.876;8.962;2023-03-01T02:23:43;26.73;;;16.37;;
10471;SDS011;5283;48.876;8.962;2023-03-01T02:26:11;25.10;;;16.30;;
10471;SDS011;5283;48.876;8.962;2023-03-01T02:28:43;23.93;;;14.90;;
10471;SDS011;5283;48.876;8.962;2023-03-01T02:31:13;25.67;;;15.87;;
10471;SDS011;5283;48.876;8.962;2023-03-01T02:34:01;21.83;;;14.17;;
10471;SDS011;5283;48.876;8.962;2023-03-01T02:36:37;26.73;;;15.97;;
10471;SDS011;5283;48.876;8.962;2023-03-01T02:39:12;24.43;;;15.37;;
10471;SDS011;5283;48.876;8.962;2023-03-01T02:41:47;22.70;;;15.37;;
10471;SDS011;5283;48.876;8.962;2023-03-01T02:44:17;28.80;;;16.23;;
10471;SDS011;5283;48.876;8.962;2023-03-01T02:46:48;27.33;;;16.93;;
10471;SDS011;5283;48.876;8.962;2023-03-01T02:49:22;26.77;;;15.97;;
10471;SDS011;5283;48.876;8.962;2023-03-01T02:51:54;28.73;;;18.07;;
10471;SDS011;5283;48.876;8.962;2023-03-01T02:57:14;29.27;;;17.27;;
10471;SDS011;5283;48.876;8.962;2023-03-01T02:59:41;27.77;;;17.13;;
10471;SDS011;5283;48.876;8.962;2023-03-01T03:02:25;27.67;;;17.87;;
10471;SDS011;5283;48.876;8.962;2023-03-01T03:07:36;29.57;;;18.70;;
10471;SDS011;5283;48.876;8.962;2023-03-01T03:10:04;27.57;;;17.80;;
10471;SDS011;5283;48.876;8.962;2023-03-01T03:12:33;30.73;;;18.53;;
10471;SDS011;5283;48.876;8.962;2023-03-01T03:14:59;28.47;;;18.77;;
10471;SDS011;5283;48.876;8.962;2023-03-01T03:17:26;28.53;;;18.97;;
10471;SDS011;5283;48.876;8.962;2023-03-01T03:19:53;28.63;;;19.00;;
10471;SDS011;5283;48.876;8.962;2023-03-01T03:22:19;25.57;;;18.70;;
10471;SDS011;5283;48.876;8.962;2023-03-01T03:24:46;30.67;;;17.87;;
10471;SDS011;5283;48.876;8.962;2023-03-01T03:27:13;28.73;;;18.60;;
10471;SDS011;5283;48.876;8.962;2023-03-01T03:29:39;27.23;;;17.67;;
10471;SDS011;5283;48.876;8.962;2023-03-01T03:32:06;27.23;;;18.63;;
10471;SDS011;5283;48.876;8.962;2023-03-01T03:34:33;26.10;;;17.20;;
10471;SDS011;5283;48.876;8.962;2023-03-01T03:37:00;24.13;;;18.20;;
10471;SDS011;5283;48.876;8.962;2023-03-01T03:39:27;23.30;;;17.03;;
10471;SDS011;5283;48.876;8.962;2023-03-01T03:41:55;23.80;;;15.87;;
10471;SDS011;5283;48.876;8.962;2023-03-01T03:44:21;23.37;;;15.50;;
10471;SDS011;5283;48.876;8.962;2023-03-01T03:46:48;23.37;;;16.10;;
10471;SDS011;5283;48.876;8.962;2023-03-01T03:49:15;21.67;;;16.30;;
10471;SDS011;5283;48.876;8.962;2023-03-01T03:51:41;24.33;;;17.13;;
10471;SDS011;5283;48.876;8.962;2023-03-01T03:54:08;22.90;;;15.60;;
10471;SDS011;5283;48.876;8.962;2023-03-01T03:56:35;22.60;;;15.83;;
10471;SDS011;5283;48.876;8.962;2023-03-01T03:59:02;18.87;;;14.07;;
10471;SDS011;5283;48.876;8.962;2023-03-01T04:01:29;20.40;;;14.20;;
10471;SDS011;5283;48.876;8.962;2023-03-01T04:03:55;19.73;;;14.00;;
10471;SDS011;5283;48.876;8.962;2023-03-01T04:06:22;22.53;;;15.40;;
10471;SDS011;5283;48.876;8.962;2023-03-01T04:08:49;19.80;;;14.23;;
10471;SDS011;5283;48.876;8.962;2023-03-01T04:11:17;19.00;;;14.67;;
10471;SDS011;5283;48.876;8.962;2023-03-01T04:13:54;20.87;;;14.97;;
10471;SDS011;5283;48.876;8.962;2023-03-01T04:16:23;19.10;;;14.97;;
10471;SDS011;5283;48.876;8.962;2023-03-01T04:18:50;21.43;;;14.80;;
10471;SDS011;5283;48.876;8.962;2023-03-01T04:21:19;22.30;;;14.97;;
10471;SDS011;5283;48.876;8.962;2023-03-01T04:23:46;21.57;;;15.17;;
10471;SDS011;5283;48.876;8.962;2023-03-01T04:26:13;21.97;;;14.80;;
10471;SDS011;5283;48.876;8.962;2023-03-01T04:28:40;21.07;;;15.43;;
10471;SDS011;5283;48.876;8.962;2023-03-01T04:31:12;23.30;;;15.77;;
10471;SDS011;5283;48.876;8.962;2023-03-01T04:36:13;22.17;;;15.27;;
10471;SDS011;5283;48.876;8.962;2023-03-01T04:38:42;20.93;;;15.10;;
10471;SDS011;5283;48.876;8.962;2023-03-01T04:41:14;22.00;;;15.27;;
10471;SDS011;5283;48.876;8.962;2023-03-01T04:43:45;20.00;;;14.53;;
10471;SDS011;5283;48.876;8.962;2023-03-01T04:46:13;19.83;;;14.70;;
10471;SDS011;5283;48.876;8.962;2023-03-01T04:48:41;18.63;;;14.37;;
10471;SDS011;5283;48.876;8.962;2023-03-01T04:51:09;20.77;;;15.47;;
10471;SDS011;5283;48.876;8.962;2023-03-01T04:53:39;18.30;;;13.73;;
10471;SDS011;5283;48.876;8.962;2023-03-01T04:56:07;22.13;;;14.50;;
10471;SDS011;5283;48.876;8.962;2023-03-01T04:58:34;19.67;;;13.67;;
10471;SDS011;5283;48.876;8.962;2023-03-01T05:01:01;19.63;;;14.23;;
10471;SDS011;5283;48.876;8.962;2023-03-01T05:03:42;17.93;;;13.10;;
10471;SDS011;5283;48.876;8.962;2023-03-01T05:06:10;20.63;;;14.10;;
10471;SDS011;5283;48.876;8.962;2023-03-01T05:08:40;19.37;;;13.77;;
10471;SDS011;5283;48.876;8.962;2023-03-01T05:11:07;20.30;;;15.30;;
10471;SDS011;5283;48.876;8.962;2023-03-01T05:13:35;20.57;;;13.73;;
10471;SDS011;5283;48.876;8.962;2023-03-01T05:16:04;18.77;;;14.30;;
10471;SDS011;5283;48.876;8.962;2023-03-01T05:18:32;19.80;;;14.20;;
10471;SDS011;5283;48.876;8.962;2023-03-01T05:21:07;20.87;;;14.67;;
10471;SDS011;5283;48.876;8.962;2023-03-01T05:23:35;20.47;;;15.40;;
10471;SDS011;5283;48.876;8.962;2023-03-01T05:26:03;19.90;;;14.67;;
10471;SDS011;5283;48.876;8.962;2023-03-01T05:28:34;19.80;;;14.20;;
10471;SDS011;5283;48.876;8.962;2023-03-01T05:31:01;22.13;;;15.20;;
10471;SDS011;5283;48.876;8.962;2023-03-01T05:33:28;21.60;;;15.03;;
10471;SDS011;5283;48.876;8.962;2023-03-01T05:35:59;20.87;;;15.23;;
10471;SDS011;5283;48.876;8.962;2023-03-01T05:38:26;21.73;;;15.07;;
10471;SDS011;5283;48.876;8.962;2023-03-01T05:40:53;23.43;;;14.93;;
10471;SDS011;5283;48.876;8.962;2023-03-01T05:43:19;22.37;;;15.20;;
10471;SDS011;5283;48.876;8.962;2023-03-01T05:45:46;22.00;;;15.73;;
10471;SDS011;5283;48.876;8.962;2023-03-01T05:48:13;23.63;;;16.33;;
10471;SDS011;5283;48.876;8.962;2023-03-01T05:50:44;23.00;;;16.37;;
10471;SDS011;5283;48.876;8.962;2023-03-01T05:53:12;27.80;;;18.40;;
10471;SDS011;5283;48.876;8.962;2023-03-01T05:55:41;24.20;;;15.83;;
10471;SDS011;5283;48.876;8.962;2023-03-01T05:58:10;22.23;;;15.60;;
10471;SDS011;5283;48.876;8.962;2023-03-01T06:00:40;22.70;;;15.20;;
10471;SDS011;5283;48.876;8.962;2023-03-01T06:03:09;21.90;;;15.23;;
10471;SDS011;5283;48.876;8.962;2023-03-01T06:05:37;21.97;;;15.73;;
10471;SDS011;5283;48.876;8.962;2023-03-01T06:08:05;21.60;;;15.13;;
10471;SDS011;5283;48.876;8.962;2023-03-01T06:10:33;23.37;;;15.50;;
10471;SDS011;5283;48.876;8.962;2023-03-01T06:12:59;23.10;;;16.30;;
10471;SDS011;5283;48.876;8.962;2023-03-01T06:15:26;23.07;;;15.67;;
10471;SDS011;5283;48.876;8.962;2023-03-01T06:17:53;21.57;;;15.10;;
10471;SDS011;5283;48.876;8.962;2023-03-01T06:20:26;24.80;;;16.60;;
10471;SDS011;5283;48.876;8.962;2023-03-01T06:22:54;26.23;;;18.47;;
10471;SDS011;5283;48.876;8.962;2023-03-01T06:25:22;26.57;;;18.23;;
10471;SDS011;5283;48.876;8.962;2023-03-01T06:27:50;26.77;;;18.17;;
10471;SDS011;5283;48.876;8.962;2023-03-01T06:30:21;28.23;;;18.70;;
10471;SDS011;5283;48.876;8.962;2023-03-01T06:32:49;26.77;;;18.43;;
10471;SDS011;5283;48.876;8.962;2023-03-01T06:35:16;26.53;;;18.40;;
10471;SDS011;5283;48.876;8.962;2023-03-01T06:37:45;25.77;;;17.30;;
10471;SDS011;5283;48.876;8.962;2023-03-01T06:40:13;24.47;;;18.10;;
10471;SDS011;5283;48.876;8.962;2023-03-01T06:42:42;23.50;;;17.57;;
10471;SDS011;5283;48.876;8.962;2023-03-01T06:45:14;25.77;;;17.97;;
10471;SDS011;5283;48.876;8.962;2023-03-01T06:47:40;25.77;;;16.50;;
10471;SDS011;5283;48.876;8.962;2023-03-01T06:50:07;23.37;;;17.23;;
10471;SDS011;5283;48.876;8.962;2023-03-01T06:52:35;20.40;;;15.13;;
10471;SDS011;5283;48.876;8.962;2023-03-01T06:55:02;24.33;;;16.30;;
10471;SDS011;5283;48.876;8.962;2023-03-01T06:57:29;22.93;;;16.80;;
10471;SDS011;5283;48.876;8.962;2023-03-01T06:59:55;22.77;;;16.27;;
10471;SDS011;5283;48.876;8.962;2023-03-01T07:02:22;22.70;;;15.73;;
10471;SDS011;5283;48.876;8.962;2023-03-01T07:04:49;24.60;;;16.83;;
10471;SDS011;5283;48.876;8.962;2023-03-01T07:07:17;24.60;;;17.07;;
10471;SDS011;5283;48.876;8.962;2023-03-01T07:09:44;22.13;;;16.40;;
10471;SDS011;5283;48.876;8.962;2023-03-01T07:12:11;22.20;;;15.73;;
10471;SDS011;5283;48.876;8.962;2023-03-01T07:14:38;22.67;;;16.27;;
10471;SDS011;5283;48.876;8.962;2023-03-01T07:17:05;23.60;;;16.67;;
10471;SDS011;5283;48.876;8.962;2023-03-01T07:19:32;24.30;;;16.97;;
10471;SDS011;5283;48.876;8.962;2023-03-01T07:21:59;23.77;;;16.70;;
10471;SDS011;5283;48.876;8.962;2023-03-01T07:24:26;22.83;;;16.80;;
10471;SDS011;5283;48.876;8.962;2023-03-01T07:26:52;25.30;;;16.13;;
10471;SDS011;5283;48.876;8.962;2023-03-01T07:29:19;24.20;;;16.97;;
10471;SDS011;5283;48.876;8.962;2023-03-01T07:31:46;22.93;;;17.10;;
10471;SDS011;5283;48.876;8.962;2023-03-01T07:34:13;24.67;;;16.83;;
10471;SDS011;5283;48.876;8.962;2023-03-01T07:36:40;21.60;;;16.47;;
10471;SDS011;5283;48.876;8.962;2023-03-01T07:39:09;23.87;;;16.97;;
10471;SDS011;5283;48.876;8.962;2023-03-01T07:41:37;25.83;;;16.90;;
10471;SDS011;5283;48.876;8.962;2023-03-01T07:44:04;24.07;;;17.43;;
10471;SDS011;5283;48.876;8.962;2023-03-01T07:46:31;21.87;;;16.13;;
10471;SDS011;5283;48.876;8.962;2023-03-01T07:48:59;22.30;;;16.83;;
10471;SDS011;5283;48.876;8.962;2023-03-01T07:51:26;21.53;;;16.00;;
10471;SDS011;5283;48.876;8.962;2023-03-01T07:53:53;21.57;;;16.77;;
10471;SDS011;5283;48.876;8.962;2023-03-01T07:56:20;23.63;;;17.23;;
10471;SDS011;5283;48.876;8.962;2023-03-01T07:58:48;23.63;;;17.30;;
10471;SDS011;5283;48.876;8.962;2023-03-01T08:01:17;19.83;;;16.00;;
10471;SDS011;5283;48.876;8.962;2023-03-01T08:03:45;24.47;;;16.70;;
10471;SDS011;5283;48.876;8.962;2023-03-01T08:06:13;21.70;;;16.13;;
10471;SDS011;5283;48.876;8.962;2023-03-01T08:08:41;22.77;;;16.73;;
10471;SDS011;5283;48.876;8.962;2023-03-01T08:11:09;21.47;;;16.50;;
10471;SDS011;5283;48.876;8.962;2023-03-01T08:13:37;22.23;;;16.70;;
10471;SDS011;5283;48.876;8.962;2023-03-01T08:16:05;22.83;;;16.50;;
10471;SDS011;5283;48.876;8.962;2023-03-01T08:18:34;22.73;;;17.20;;
10471;SDS011;5283;48.876;8.962;2023-03-01T08:21:02;24.77;;;17.40;;
10471;SDS011;5283;48.876;8.962;2023-03-01T08:23:30;22.87;;;16.40;;
10471;SDS011;5283;48.876;8.962;2023-03-01T08:26:18;22.93;;;17.00;;
10471;SDS011;5283;48.876;8.962;2023-03-01T08:28:46;21.23;;;15.83;;
10471;SDS011;5283;48.876;8.962;2023-03-01T08:33:43;21.20;;;15.37;;
10471;SDS011;5283;48.876;8.962;2023-03-01T08:36:09;21.13;;;15.27;;
10471;SDS011;5283;48.876;8.962;2023-03-01T08:38:36;24.30;;;16.23;;
10471;SDS011;5283;48.876;8.962;2023-03-01T08:41:03;20.83;;;15.77;;
10471;SDS011;5283;48.876;8.962;2023-03-01T08:43:30;19.77;;;15.07;;
10471;SDS011;5283;48.876;8.962;2023-03-01T08:45:57;21.30;;;16.37;;
10471;SDS011;5283;48.876;8.962;2023-03-01T08:48:24;18.67;;;15.30;;
10471;SDS011;5283;48.876;8.962;2023-03-01T08:50:51;19.43;;;14.80;;
10471;SDS011;5283;48.876;8.962;2023-03-01T08:53:17;19.27;;;14.97;;
10471;SDS011;5283;48.876;8.962;2023-03-01T08:55:44;22.10;;;15.00;;
10471;SDS011;5283;48.876;8.962;2023-03-01T08:58:11;20.40;;;14.80;;
10471;SDS011;5283;48.876;8.962;2023-03-01T09:00:38;24.07;;;16.10;;
10471;SDS011;5283;48.876;8.962;2023-03-01T09:03:06;23.80;;;15.73;;
10471;SDS011;5283;48.876;8.962;2023-03-01T09:05:33;23.37;;;16.20;;
10471;SDS011;5283;48.876;8.962;2023-03-01T09:08:00;21.17;;;15.83;;
10471;SDS011;5283;48.876;8.962;2023-03-01T09:10:27;21.37;;;15.37;;
10471;SDS011;5283;48.876;8.962;2023-03-01T09:12:54;19.57;;;14.57;;
10471;SDS011;5283;48.876;8.962;2023-03-01T09:15:21;20.47;;;14.53;;
10471;SDS011;5283;48.876;8.962;2023-03-01T09:17:48;19.77;;;14.83;;
10471;SDS011;5283;48.876;8.962;2023-03-01T09:20:14;20.60;;;14.80;;
10471;SDS011;5283;48.876;8.962;2023-03-01T09:22:41;21.57;;;14.90;;
10471;SDS011;5283;48.876;8.962;2023-03-01T09:25:08;22.27;;;14.20;;
10471;SDS011;5283;48.876;8.962;2023-03-01T09:27:35;18.73;;;13.07;;
10471;SDS011;5283;48.876;8.962;2023-03-01T09:30:02;18.87;;;13.03;;
10471;SDS011;5283;48.876;8.962;2023-03-01T09:32:30;19.63;;;13.87;;
10471;SDS011;5283;48.876;8.962;2023-03-01T09:34:57;18.73;;;14.30;;
10471;SDS011;5283;48.876;8.962;2023-03-01T09:37:30;19.07;;;14.53;;
10471;SDS011;5283;48.876;8.962;2023-03-01T09:39:58;17.73;;;14.37;;
10471;SDS011;5283;48.876;8.962;2023-03-01T09:42:25;20.10;;;13.37;;
10471;SDS011;5283;48.876;8.962;2023-03-01T09:45:15;15.17;;;10.70;;
10471;SDS011;5283;48.876;8.962;2023-03-01T09:47:51;17.40;;;13.03;;
10471;SDS011;5283;48.876;8.962;2023-03-01T09:50:20;17.67;;;13.57;;
10471;SDS011;5283;48.876;8.962;2023-03-01T09:53:01;18.87;;;14.37;;
10471;SDS011;5283;48.876;8.962;2023-03-01T09:55:46;19.07;;;14.40;;
10471;SDS011;5283;48.876;8.962;2023-03-01T10:00:57;17.20;;;13.70;;
10471;SDS011;5283;48.876;8.962;2023-03-01T10:06:08;18.57;;;14.13;;
10471;SDS011;5283;48.876;8.962;2023-03-01T10:09:05;20.03;;;14.20;;
10471;SDS011;5283;48.876;8.962;2023-03-01T10:11:39;20.73;;;14.77;;
10471;SDS011;5283;48.876;8.962;2023-03-01T10:14:28;20.27;;;13.93;;
10471;SDS011;5283;48.876;8.962;2023-03-01T10:19:44;18.67;;;14.10;;
10471;SDS011;5283;48.876;8.962;2023-03-01T10:22:19;15.43;;;13.73;;
10471;SDS011;5283;48.876;8.962;2023-03-01T10:24:58;18.43;;;14.57;;
10471;SDS011;5283;48.876;8.962;2023-03-01T10:27:37;19.63;;;14.03;;
10471;SDS011;5283;48.876;8.962;2023-03-01T10:30:38;18.43;;;13.77;;
10471;SDS011;5283;48.876;8.962;2023-03-01T10:33:16;16.97;;;13.33;;
10471;SDS011;5283;48.876;8.962;2023-03-01T10:35:46;17.13;;;13.80;;
10471;SDS011;5283;48.876;8.962;2023-03-01T10:38:15;20.10;;;14.70;;
10471;SDS011;5283;48.876;8.962;2023-03-01T10:40:50;21.20;;;14.13;;
10471;SDS011;5283;48.876;8.962;2023-03-01T10:43:25;19.03;;;13.57;;
10471;SDS011;5283;48.876;8.962;2023-03-01T10:45:58;16.67;;;11.67;;
10471;SDS011;5283;48.876;8.962;2023-03-01T10:48:25;20.10;;;14.27;;
10471;SDS011;5283;48.876;8.962;2023-03-01T10:53:27;17.90;;;14.30;;
10471;SDS011;5283;48.876;8.962;2023-03-01T10:58:36;15.73;;;12.27;;
10471;SDS011;5283;48.876;8.962;2023-03-01T11:03:43;16.40;;;11.17;;
10471;SDS011;5283;48.876;8.962;2023-03-01T11:08:46;18.67;;;14.47;;
10471;SDS011;5283;48.876;8.962;2023-03-01T11:13:52;17.70;;;13.10;;
10471;SDS011;5283;48.876;8.962;2023-03-01T11:16:28;19.53;;;13.37;;
10471;SDS011;5283;48.876;8.962;2023-03-01T11:21:36;20.40;;;14.93;;
10471;SDS011;5283;48.876;8.962;2023-03-01T11:24:11;18.20;;;13.33;;
10471;SDS011;5283;48.876;8.962;2023-03-01T11:26:42;16.67;;;13.80;;
10471;SDS011;5283;48.876;8.962;2023-03-01T11:29:27;18.17;;;13.33;;
10471;SDS011;5283;48.876;8.962;2023-03-01T11:32:13;18.07;;;12.93;;
10471;SDS011;5283;48.876;8.962;2023-03-01T11:34:47;17.73;;;12.67;;
10471;SDS011;5283;48.876;8.962;2023-03-01T11:37:21;16.80;;;13.17;;
10471;SDS011;5283;48.876;8.962;2023-03-01T11:39:58;15.93;;;13.27;;
10471;SDS011;5283;48.876;8.962;2023-03-01T11:45:16;17.87;;;12.83;;
10471;SDS011;5283;48.876;8.962;2023-03-01T11:47:50;16.63;;;13.47;;
10471;SDS011;5283;48.876;8.962;2023-03-01T11:50:30;16.03;;;12.23;;
10471;SDS011;5283;48.876;8.962;2023-03-01T11:53:21;15.63;;;12.73;;
10471;SDS011;5283;48.876;8.962;2023-03-01T12:06:56;15.73;;;12.47;;
10471;SDS011;5283;48.876;8.962;2023-03-01T12:14:50;14.23;;;12.07;;
10471;SDS011;5283;48.876;8.962;2023-03-01T12:37:13;14.50;;;12.37;;
10471;SDS011;5283;48.876;8.962;2023-03-01T12:47:58;14.57;;;12.17;;
10471;SDS011;5283;48.876;8.962;2023-03-01T12:50:35;16.87;;;13.20;;
10471;SDS011;5283;48.876;8.962;2023-03-01T12:53:19;14.83;;;11.57;;
10471;SDS011;5283;48.876;8.962;2023-03-01T12:55:51;16.37;;;12.40;;
10471;SDS011;5283;48.876;8.962;2023-03-01T12:58:23;15.80;;;12.90;;
10471;SDS011;5283;48.876;8.962;2023-03-01T13:04:03;15.57;;;12.53;;
10471;SDS011;5283;48.876;8.962;2023-03-01T13:17:51;16.77;;;14.00;;
10471;SDS011;5283;48.876;8.962;2023-03-01T13:20:21;17.23;;;13.87;;
10471;SDS011;5283;48.876;8.962;2023-03-01T13:23:03;17.23;;;14.10;;
10471;SDS011;5283;48.876;8.962;2023-03-01T13:25:33;15.10;;;12.97;;
10471;SDS011;5283;48.876;8.962;2023-03-01T13:31:07;17.57;;;13.93;;
10471;SDS011;5283;48.876;8.962;2023-03-01T13:33:41;16.40;;;13.90;;
10471;SDS011;5283;48.876;8.962;2023-03-01T13:46:50;16.87;;;13.60;;
10471;SDS011;5283;48.876;8.962;2023-03-01T13:49:20;14.10;;;11.63;;
10471;SDS011;5283;48.876;8.962;2023-03-01T13:55:28;18.23;;;12.60;;
10471;SDS011;5283;48.876;8.962;2023-03-01T13:58:05;17.93;;;12.67;;
10471;SDS011;5283;48.876;8.962;2023-03-01T14:00:46;16.83;;;13.23;;
10471;SDS011;5283;48.876;8.962;2023-03-01T14:03:14;16.30;;;13.77;;
10471;SDS011;5283;48.876;8.962;2023-03-01T14:05:44;18.00;;;13.47;;
10471;SDS011;5283;48.876;8.962;2023-03-01T14:08:41;17.77;;;12.57;;
10471;SDS011;5283;48.876;8.962;2023-03-01T14:13:58;18.47;;;13.37;;
10471;SDS011;5283;48.876;8.962;2023-03-01T14:16:44;15.43;;;13.70;;
10471;SDS011;5283;48.876;8.962;2023-03-01T14:19:27;15.70;;;14.00;;
10471;SDS011;5283;48.876;8.962;2023-03-01T14:24:44;14.67;;;12.80;;
10471;SDS011;5283;48.876;8.962;2023-03-01T14:27:28;15.47;;;12.77;;
10471;SDS011;5283;48.876;8.962;2023-03-01T14:30:01;15.13;;;13.10;;
10471;SDS011;5283;48.876;8.962;2023-03-01T14:32:31;17.77;;;13.67;;
10471;SDS011;5283;48.876;8.962;2023-03-01T14:34:59;15.60;;;12.23;;
10471;SDS011;5283;48.876;8.962;2023-03-01T14:37:28;16.47;;;13.17;;
10471;SDS011;5283;48.876;8.962;2023-03-01T14:39:57;14.73;;;12.80;;
10471;SDS011;5283;48.876;8.962;2023-03-01T14:42:27;18.87;;;13.27;;
10471;SDS011;5283;48.876;8.962;2023-03-01T14:44:57;15.77;;;13.57;;
10471;SDS011;5283;48.876;8.962;2023-03-01T14:47:30;17.90;;;12.70;;
10471;SDS011;5283;48.876;8.962;2023-03-01T14:50:00;15.00;;;13.40;;
10471;SDS011;5283;48.876;8.962;2023-03-01T14:52:34;14.50;;;12.90;;
10471;SDS011;5283;48.876;8.962;2023-03-01T14:55:12;16.30;;;12.77;;
10471;SDS011;5283;48.876;8.962;2023-03-01T14:57:45;16.47;;;13.90;;
10471;SDS011;5283;48.876;8.962;2023-03-01T15:00:18;16.97;;;13.97;;
10471;SDS011;5283;48.876;8.962;2023-03-01T15:02:48;15.20;;;12.00;;
10471;SDS011;5283;48.876;8.962;2023-03-01T15:05:22;17.00;;;11.63;;
10471;SDS011;5283;48.876;8.962;2023-03-01T15:07:59;18.13;;;11.73;;
10471;SDS011;5283;48.876;8.962;2023-03-01T15:10:28;16.87;;;12.27;;
10471;SDS011;5283;48.876;8.962;2023-03-01T15:13:10;16.90;;;13.07;;
10471;SDS011;5283;48.876;8.962;2023-03-01T15:15:39;19.17;;;13.17;;
10471;SDS011;5283;48.876;8.962;2023-03-01T15:18:19;13.90;;;11.43;;
10471;SDS011;5283;48.876;8.962;2023-03-01T15:20:55;15.37;;;11.60;;
10471;SDS011;5283;48.876;8.962;2023-03-01T15:23:31;14.97;;;12.50;;
10471;SDS011;5283;48.876;8.962;2023-03-01T15:25:58;17.73;;;13.53;;
10471;SDS011;5283;48.876;8.962;2023-03-01T15:28:26;17.10;;;14.17;;
10471;SDS011;5283;48.876;8.962;2023-03-01T15:33:33;17.43;;;13.20;;
10471;SDS011;5283;48.876;8.962;2023-03-01T15:36:03;15.97;;;12.77;;
10471;SDS011;5283;48.876;8.962;2023-03-01T15:38:50;18.33;;;13.57;;
10471;SDS011;5283;48.876;8.962;2023-03-01T15:41:28;16.50;;;12.47;;
10471;SDS011;5283;48.876;8.962;2023-03-01T15:44:00;16.37;;;13.37;;
10471;SDS011;5283;48.876;8.962;2023-03-01T15:46:40;16.37;;;12.73;;
10471;SDS011;5283;48.876;8.962;2023-03-01T15:52:22;15.47;;;12.70;;
10471;SDS011;5283;48.876;8.962;2023-03-01T15:54:56;16.83;;;13.40;;
10471;SDS011;5283;48.876;8.962;2023-03-01T15:57:27;16.07;;;12.40;;
10471;SDS011;5283;48.876;8.962;2023-03-01T15:59:54;18.20;;;12.47;;
10471;SDS011;5283;48.876;8.962;2023-03-01T16:02:22;14.13;;;11.80;;
10471;SDS011;5283;48.876;8.962;2023-03-01T16:04:50;17.23;;;12.87;;
10471;SDS011;5283;48.876;8.962;2023-03-01T16:07:17;15.60;;;13.10;;
10471;SDS011;5283;48.876;8.962;2023-03-01T16:09:44;19.97;;;13.23;;
10471;SDS011;5283;48.876;8.962;2023-03-01T16:12:12;19.23;;;11.63;;
10471;SDS011;5283;48.876;8.962;2023-03-01T16:14:41;14.63;;;11.47;;
10471;SDS011;5283;48.876;8.962;2023-03-01T16:17:08;16.23;;;13.20;;
10471;SDS011;5283;48.876;8.962;2023-03-01T16:19:37;18.33;;;14.00;;
10471;SDS011;5283;48.876;8.962;2023-03-01T16:22:04;17.63;;;13.30;;
10471;SDS011;5283;48.876;8.962;2023-03-01T16:24:31;19.50;;;13.27;;
10471;SDS011;5283;48.876;8.962;2023-03-01T16:26:58;18.77;;;13.30;;
10471;SDS011;5283;48.876;8.962;2023-03-01T16:29:24;17.00;;;13.53;;
10471;SDS011;5283;48.876;8.962;2023-03-01T16:31:52;18.37;;;13.53;;
10471;SDS011;5283;48.876;8.962;2023-03-01T16:34:20;18.17;;;13.20;;
10471;SDS011;5283;48.876;8.962;2023-03-01T16:36:48;17.03;;;14.10;;
10471;SDS011;5283;48.876;8.962;2023-03-01T16:39:15;17.00;;;13.37;;
10471;SDS011;5283;48.876;8.962;2023-03-01T16:41:42;17.63;;;14.37;;
10471;SDS011;5283;48.876;8.962;2023-03-01T16:44:09;18.37;;;14.30;;
10471;SDS011;5283;48.876;8.962;2023-03-01T16:46:36;16.57;;;14.03;;
10471;SDS011;5283;48.876;8.962;2023-03-01T16:49:04;17.60;;;13.43;;
10471;SDS011;5283;48.876;8.962;2023-03-01T16:51:31;17.67;;;12.63;;
10471;SDS011;5283;48.876;8.962;2023-03-01T16:54:00;18.53;;;13.93;;
10471;SDS011;5283;48.876;8.962;2023-03-01T16:56:30;17.80;;;13.10;;